createdAt,value
2023-12-12T00:02:09.634Z,100218.75
2023-12-12T00:04:46.589Z,100226.53
2023-12-12T00:07:23.802Z,100213.56
2023-12-12T00:09:59.047Z,100241.06
2023-12-12T00:12:39.732Z,100208.22
2023-12-12T00:15:17.620Z,100231.09
2023-12-12T00:17:55.460Z,100224.06
2023-12-12T00:20:32.692Z,100220.28
2023-12-12T00:23:08.901Z,100240.38
2023-12-12T00:25:46.554Z,100233.19
2023-12-12T00:28:18.463Z,100242.25
2023-12-12T00:30:53.319Z,100253.22
2023-12-12T00:33:27.558Z,100255.63
2023-12-12T00:36:08.859Z,100251.75
2023-12-12T00:38:40.811Z,100254.72
2023-12-12T00:41:14.968Z,100258.63
2023-12-12T00:43:57.758Z,100258.47
2023-12-12T00:46:29.805Z,100267.47
2023-12-12T00:49:05.018Z,100259.84
2023-12-12T00:51:59.819Z,100258.41
2023-12-12T00:54:35.146Z,100260.06
2023-12-12T00:57:14.631Z,100255.75
2023-12-12T00:59:46.535Z,100258.56
2023-12-12T01:02:28.558Z,100265.94
2023-12-12T01:05:00.462Z,100260.81
2023-12-12T01:07:38.557Z,100263.22
2023-12-12T01:10:11.416Z,100271.72
2023-12-12T01:12:48.820Z,100271.41
2023-12-12T01:15:25.968Z,100269.44
2023-12-12T01:17:57.963Z,100278.16
2023-12-12T01:20:32.101Z,100267.22
2023-12-12T01:23:07.043Z,100269.31
2023-12-12T01:25:39.313Z,100279.09
2023-12-12T01:28:11.165Z,100289.75
2023-12-12T01:30:54.485Z,100284.44
2023-12-12T01:33:29.339Z,100289.31
2023-12-12T01:36:24.984Z,100292.88
2023-12-12T01:39:03.990Z,100296.44
2023-12-12T01:41:35.768Z,100288.81
2023-12-12T01:44:09.743Z,100288.97
2023-12-12T01:46:43.742Z,100286.22
2023-12-12T01:49:17.922Z,100295.78
2023-12-12T01:51:54.967Z,100294.84
2023-12-12T01:54:30.430Z,100284.94
2023-12-12T01:57:02.623Z,100283.31
2023-12-12T01:59:35.699Z,100298.31
2023-12-12T02:02:08.421Z,100298.41
2023-12-12T02:04:44.304Z,100297.81
2023-12-12T02:07:37.415Z,100300.00
2023-12-12T02:10:15.747Z,100310.50
2023-12-12T02:12:47.515Z,100310.47
2023-12-12T02:15:20.174Z,100310.97
2023-12-12T02:18:12.092Z,100308.59
2023-12-12T02:21:04.150Z,100319.97
2023-12-12T02:23:40.917Z,100314.19
2023-12-12T02:26:15.305Z,100314.88
2023-12-12T02:28:52.457Z,100310.19
2023-12-12T02:31:26.710Z,100320.72
2023-12-12T02:34:00.725Z,100317.19
2023-12-12T02:36:32.697Z,100317.09
2023-12-12T02:39:07.589Z,100329.13
2023-12-12T02:41:42.372Z,100329.94
2023-12-12T02:44:16.911Z,100324.69
2023-12-12T02:46:51.927Z,100317.63
2023-12-12T02:49:26.612Z,100322.53
2023-12-12T02:51:58.637Z,100328.56
2023-12-12T02:54:45.576Z,100323.88
2023-12-12T02:57:17.657Z,100333.13
2023-12-12T02:59:52.244Z,100325.84
2023-12-12T03:02:26.431Z,100333.81
2023-12-12T03:04:58.630Z,100324.81
2023-12-12T03:07:30.562Z,100319.63
2023-12-12T03:10:05.453Z,100316.34
2023-12-12T03:12:44.781Z,100309.09
2023-12-12T03:15:22.510Z,100321.25
2023-12-12T03:17:57.162Z,100305.22
2023-12-12T03:21:01.611Z,100310.19
2023-12-12T03:23:43.416Z,100316.34
2023-12-12T03:26:20.553Z,100316.72
2023-12-12T03:28:52.314Z,100321.50
2023-12-12T03:31:26.972Z,100313.34
2023-12-12T03:34:19.185Z,100313.88
2023-12-12T03:37:31.617Z,100319.84
2023-12-12T03:40:43.756Z,100327.84
2023-12-12T03:43:31.275Z,100334.38
2023-12-12T03:46:30.486Z,100338.13
2023-12-12T03:49:42.545Z,100332.13
2023-12-12T03:52:45.931Z,100331.31
2023-12-12T03:55:18.728Z,100335.50
2023-12-12T03:57:51.058Z,100340.84
2023-12-12T04:00:26.038Z,100337.94
2023-12-12T04:02:57.959Z,100331.75
2023-12-12T04:05:32.055Z,100324.56
2023-12-12T04:08:03.762Z,100332.16
2023-12-12T04:10:35.796Z,100336.84
2023-12-12T04:13:10.527Z,100344.50
2023-12-12T04:15:47.741Z,100335.09
2023-12-12T04:18:29.788Z,100334.75
2023-12-12T04:21:41.787Z,100337.78
2023-12-12T04:24:19.347Z,100336.38
2023-12-12T04:26:51.123Z,100335.84
2023-12-12T04:29:22.856Z,100340.06
2023-12-12T04:31:59.579Z,100338.63
2023-12-12T04:34:51.600Z,100342.25
2023-12-12T04:37:26.718Z,100344.66
2023-12-12T04:40:04.390Z,100349.00
2023-12-12T04:42:39.792Z,100345.41
2023-12-12T04:45:14.726Z,100352.75
2023-12-12T04:47:51.984Z,100351.97
2023-12-12T04:50:26.633Z,100347.97
2023-12-12T04:52:58.442Z,100356.31
2023-12-12T04:55:33.267Z,100363.47
2023-12-12T04:58:08.022Z,100361.28
2023-12-12T05:00:49.210Z,100356.16
2023-12-12T05:03:26.158Z,100354.31
2023-12-12T05:06:01.093Z,100354.50
2023-12-12T05:08:38.522Z,100359.16
2023-12-12T05:11:17.894Z,100366.97
2023-12-12T05:14:01.575Z,100367.63
2023-12-12T05:16:38.745Z,100363.38
2023-12-12T05:19:13.453Z,100363.66
2023-12-12T05:21:48.793Z,100360.53
2023-12-12T05:24:23.160Z,100369.44
2023-12-12T05:26:55.309Z,100361.75
2023-12-12T05:30:00.372Z,100369.09
2023-12-12T05:32:32.447Z,100365.50
2023-12-12T05:35:12.109Z,100372.81
2023-12-12T05:37:46.542Z,100379.41
2023-12-12T05:40:21.568Z,100374.72
2023-12-12T05:42:53.742Z,100377.63
2023-12-12T05:45:45.672Z,100378.06
2023-12-12T05:48:17.830Z,100385.56
2023-12-12T05:50:54.859Z,100384.75
2023-12-12T05:53:46.760Z,100394.25
2023-12-12T05:56:22.172Z,100387.41
2023-12-12T05:58:54.426Z,100383.31
2023-12-12T06:01:26.222Z,100387.78
2023-12-12T06:04:40.016Z,100387.53
2023-12-12T06:07:22.106Z,100393.06
2023-12-12T06:09:58.994Z,100397.06
2023-12-12T06:12:36.124Z,100398.38
2023-12-12T06:15:09.388Z,100398.06
2023-12-12T06:17:41.166Z,100396.09
2023-12-12T06:20:14.778Z,100401.03
2023-12-12T06:23:00.465Z,100405.78
2023-12-12T06:25:32.809Z,100409.63
2023-12-12T06:28:09.259Z,100421.78
2023-12-12T06:30:40.903Z,100416.91
2023-12-12T06:33:12.841Z,100421.81
2023-12-12T06:35:47.102Z,100421.88
2023-12-12T06:38:34.166Z,100435.53
2023-12-12T06:41:14.397Z,100440.44
2023-12-12T06:43:48.587Z,100428.28
2023-12-12T06:46:23.716Z,100431.19
2023-12-12T06:48:55.386Z,100421.47
2023-12-12T06:51:32.658Z,100423.34
2023-12-12T06:54:10.556Z,100433.34
2023-12-12T06:57:05.263Z,100425.22
2023-12-12T06:59:40.528Z,100426.16
2023-12-12T07:02:15.971Z,100432.09
2023-12-12T07:05:09.012Z,100430.97
2023-12-12T07:08:00.988Z,100443.69
2023-12-12T07:11:05.646Z,100438.13
2023-12-12T07:13:58.894Z,100443.06
2023-12-12T07:16:36.309Z,100442.56
2023-12-12T07:19:20.726Z,100443.41
2023-12-12T07:22:32.985Z,100443.78
2023-12-12T07:25:45.359Z,100441.19
2023-12-12T07:28:40.741Z,100433.81
2023-12-12T07:31:36.157Z,100434.78
2023-12-12T07:34:08.299Z,100435.41
2023-12-12T07:37:20.466Z,100438.19
2023-12-12T07:40:22.416Z,100437.59
2023-12-12T07:43:00.083Z,100432.50
2023-12-12T07:45:42.347Z,100439.19
2023-12-12T07:48:14.737Z,100437.03
2023-12-12T07:51:06.270Z,100443.41
2023-12-12T07:53:40.195Z,100440.00
2023-12-12T07:56:17.117Z,100438.25
2023-12-12T07:58:48.903Z,100443.94
2023-12-12T08:01:26.477Z,100432.38
2023-12-12T08:04:11.120Z,100438.22
2023-12-12T08:07:06.154Z,100459.03
2023-12-12T08:09:50.801Z,100452.19
2023-12-12T08:12:42.576Z,100446.16
2023-12-12T08:15:21.556Z,100452.09
2023-12-12T08:17:56.249Z,100456.38
2023-12-12T08:20:57.951Z,100464.28
2023-12-12T08:23:34.582Z,100455.50
2023-12-12T08:26:16.636Z,100464.94
2023-12-12T08:29:19.470Z,100461.09
2023-12-12T08:31:51.335Z,100469.09
2023-12-12T08:34:35.134Z,100471.03
2023-12-12T08:37:30.530Z,100455.84
2023-12-12T08:40:05.850Z,100464.81
2023-12-12T08:43:01.255Z,100468.31
2023-12-12T08:45:56.669Z,100471.28
2023-12-12T08:48:34.065Z,100467.88
2023-12-12T08:51:38.628Z,100464.69
2023-12-12T08:54:14.073Z,100472.91
2023-12-12T08:56:55.505Z,100470.63
2023-12-12T08:59:49.023Z,100471.97
2023-12-12T09:02:41.911Z,100463.22
2023-12-12T09:05:25.993Z,100474.19
2023-12-12T09:08:14.888Z,100468.66
2023-12-12T09:10:52.036Z,100464.28
2023-12-12T09:13:26.970Z,100478.34
2023-12-12T09:16:19.352Z,100466.69
2023-12-12T09:18:51.641Z,100475.13
2023-12-12T09:22:04.047Z,100476.06
2023-12-12T09:24:49.550Z,100456.69
2023-12-12T09:27:28.713Z,100468.81
2023-12-12T09:30:15.296Z,100461.66
2023-12-12T09:33:03.114Z,100460.53
2023-12-12T09:35:44.070Z,100464.88
2023-12-12T09:38:16.934Z,100464.44
2023-12-12T09:41:25.842Z,100466.47
2023-12-12T09:44:31.277Z,100475.22
2023-12-12T09:47:09.291Z,100475.50
2023-12-12T09:49:46.874Z,100475.16
2023-12-12T09:52:40.561Z,100465.72
2023-12-12T09:55:27.738Z,100467.88
2023-12-12T09:58:12.958Z,100461.13
2023-12-12T10:00:56.748Z,100464.34
2023-12-12T10:03:31.297Z,100462.72
2023-12-12T10:06:35.496Z,100467.25
2023-12-12T10:09:10.531Z,100466.47
2023-12-12T10:11:45.395Z,100456.06
2023-12-12T10:14:39.233Z,100458.78
2023-12-12T10:17:15.617Z,100457.06
2023-12-12T10:19:47.991Z,100445.84
2023-12-12T10:22:28.805Z,100452.06
2023-12-12T10:25:16.353Z,100456.38
2023-12-12T10:27:54.510Z,100447.56
2023-12-12T10:30:30.435Z,100442.22
2023-12-12T10:33:15.980Z,100434.63
2023-12-12T10:36:13.857Z,100439.41
2023-12-12T10:38:46.285Z,100433.38
2023-12-12T10:41:29.965Z,100440.75
2023-12-12T10:44:26.144Z,100433.69
2023-12-12T10:47:03.832Z,100439.56
2023-12-12T10:49:50.708Z,100435.50
2023-12-12T10:52:39.022Z,100430.22
2023-12-12T10:55:31.667Z,100426.75
2023-12-12T10:58:24.217Z,100420.97
2023-12-12T11:00:59.293Z,100418.38
2023-12-12T11:04:00.223Z,100417.59
2023-12-12T11:06:52.528Z,100415.81
2023-12-12T11:09:47.795Z,100405.81
2023-12-12T11:12:56.358Z,100398.03
2023-12-12T11:16:05.281Z,100397.88
2023-12-12T11:18:41.500Z,100391.28
2023-12-12T11:21:49.020Z,100387.94
2023-12-12T11:25:09.042Z,100393.59
2023-12-12T11:27:45.295Z,100386.59
2023-12-12T11:30:24.380Z,100385.97
2023-12-12T11:33:10.272Z,100377.09
2023-12-12T11:35:51.695Z,100384.59
2023-12-12T11:38:36.569Z,100372.75
2023-12-12T11:41:19.628Z,100374.63
2023-12-12T11:44:15.475Z,100367.16
2023-12-12T11:46:48.371Z,100350.88
2023-12-12T11:49:24.887Z,100362.34
2023-12-12T11:51:59.262Z,100352.38
2023-12-12T11:54:36.144Z,100351.59
2023-12-12T11:57:16.153Z,100346.63
2023-12-12T11:59:50.486Z,100351.19
2023-12-12T12:02:24.696Z,100338.84
2023-12-12T12:05:16.848Z,100340.13
2023-12-12T12:07:49.137Z,100330.97
2023-12-12T12:10:58.885Z,100339.34
2023-12-12T12:14:11.734Z,100334.25
2023-12-12T12:16:44.188Z,100328.63
2023-12-12T12:19:35.442Z,100323.88
2023-12-12T12:22:43.013Z,100324.69
2023-12-12T12:25:29.396Z,100327.53
2023-12-12T12:28:24.565Z,100317.81
2023-12-12T12:31:07.603Z,100326.56
2023-12-12T12:34:00.239Z,100324.47
2023-12-12T12:36:55.509Z,100317.72
2023-12-12T12:39:50.820Z,100315.25
2023-12-12T12:42:22.681Z,100315.06
2023-12-12T12:45:20.237Z,100321.28
2023-12-12T12:47:52.525Z,100325.47
2023-12-12T12:50:34.290Z,100316.09
2023-12-12T12:53:06.506Z,100318.03
2023-12-12T12:55:38.272Z,100309.94
2023-12-12T12:58:09.938Z,100310.38
2023-12-12T13:00:46.916Z,100314.81
2023-12-12T13:03:19.474Z,100308.31
2023-12-12T13:06:12.299Z,100304.53
2023-12-12T13:08:47.668Z,100312.03
2023-12-12T13:11:23.061Z,100306.19
2023-12-12T13:14:17.195Z,100304.56
2023-12-12T13:16:55.013Z,100312.72
2023-12-12T13:19:28.671Z,100305.72
2023-12-12T13:22:00.758Z,100313.19
2023-12-12T13:24:32.671Z,100302.59
2023-12-12T13:27:24.566Z,100306.25
2023-12-12T13:30:00.956Z,100299.81
2023-12-12T13:32:37.815Z,100298.91
2023-12-12T13:35:21.150Z,100302.38
2023-12-12T13:37:59.636Z,100305.59
2023-12-12T13:40:51.582Z,100305.00
2023-12-12T13:43:24.962Z,100305.88
2023-12-12T13:45:59.305Z,100303.53
2023-12-12T13:48:33.893Z,100301.69
2023-12-12T13:51:07.073Z,100299.19
2023-12-12T13:53:52.024Z,100301.41
2023-12-12T13:56:23.958Z,100298.06
2023-12-12T13:59:03.928Z,100296.06
2023-12-12T14:01:39.355Z,100291.69
2023-12-12T14:04:23.604Z,100291.84
2023-12-12T14:06:58.388Z,100289.19
2023-12-12T14:09:38.531Z,100290.91
2023-12-12T14:12:11.560Z,100295.75
2023-12-12T14:15:04.853Z,100287.06
2023-12-12T14:17:57.479Z,100287.38
2023-12-12T14:20:35.891Z,100288.63
2023-12-12T14:23:20.635Z,100286.00
2023-12-12T14:26:26.890Z,100286.56
2023-12-12T14:28:58.858Z,100286.84
2023-12-12T14:31:37.361Z,100288.72
2023-12-12T14:34:19.275Z,100289.59
2023-12-12T14:37:14.301Z,100279.34
2023-12-12T14:39:55.128Z,100281.31
2023-12-12T14:43:04.836Z,100278.88
2023-12-12T14:45:36.762Z,100272.78
2023-12-12T14:48:33.802Z,100275.78
2023-12-12T14:51:35.219Z,100276.66
2023-12-12T14:54:09.867Z,100277.78
2023-12-12T14:56:48.497Z,100269.47
2023-12-12T14:59:23.323Z,100258.25
2023-12-12T15:02:09.538Z,100266.19
2023-12-12T15:05:03.915Z,100269.41
2023-12-12T15:07:35.970Z,100267.06
2023-12-12T15:10:40.061Z,100252.91
2023-12-12T15:13:20.291Z,100250.19
2023-12-12T15:16:22.563Z,100254.50
2023-12-12T15:19:06.617Z,100248.75
2023-12-12T15:22:00.999Z,100248.44
2023-12-12T15:24:36.072Z,100239.16
2023-12-12T15:27:19.397Z,100234.63
2023-12-12T15:30:05.317Z,100235.09
2023-12-12T15:32:47.003Z,100226.69
2023-12-12T15:35:22.558Z,100223.47
2023-12-12T15:38:22.178Z,100227.06
2023-12-12T15:40:56.602Z,100213.63
2023-12-12T15:43:33.866Z,100214.38
2023-12-12T15:46:39.529Z,100216.38
2023-12-12T15:49:36.473Z,100206.72
2023-12-12T15:52:28.726Z,100208.34
2023-12-12T15:55:03.277Z,100207.09
2023-12-12T15:58:03.360Z,100207.91
2023-12-12T16:00:40.439Z,100215.88
2023-12-12T16:03:17.132Z,100208.69
2023-12-12T16:06:12.100Z,100211.69
2023-12-12T16:08:53.850Z,100211.69
2023-12-12T16:11:25.735Z,100211.25
2023-12-12T16:14:13.702Z,100200.50
2023-12-12T16:17:08.838Z,100200.91
2023-12-12T16:19:53.576Z,100190.13
2023-12-12T16:22:47.139Z,100186.66
2023-12-12T16:25:19.019Z,100189.53
2023-12-12T16:28:03.106Z,100192.22
2023-12-12T16:30:35.578Z,100194.13
2023-12-12T16:33:12.556Z,100180.84
2023-12-12T16:35:44.475Z,100195.84
2023-12-12T16:38:22.725Z,100189.97
2023-12-12T16:40:54.880Z,100183.47
2023-12-12T16:43:26.956Z,100179.53
2023-12-12T16:45:58.679Z,100186.59
2023-12-12T16:48:38.642Z,100172.66
2023-12-12T16:51:11.678Z,100173.34
2023-12-12T16:54:06.906Z,100176.75
2023-12-12T16:56:38.754Z,100170.03
2023-12-12T16:59:10.741Z,100163.00
2023-12-12T17:01:47.441Z,100161.34
2023-12-12T17:04:28.855Z,100154.47
2023-12-12T17:07:01.122Z,100152.34
2023-12-12T17:09:35.295Z,100145.81
2023-12-12T17:12:10.874Z,100145.69
2023-12-12T17:14:45.768Z,100144.84
2023-12-12T17:17:17.592Z,100131.75
2023-12-12T17:19:54.241Z,100127.41
2023-12-12T17:22:26.199Z,100118.53
2023-12-12T17:24:58.623Z,100121.75
2023-12-12T17:27:33.710Z,100121.56
2023-12-12T17:30:10.949Z,100117.84
2023-12-12T17:32:52.720Z,100115.47
2023-12-12T17:35:28.292Z,100112.72
2023-12-12T17:38:44.174Z,100102.28
2023-12-12T17:41:19.384Z,100102.56
2023-12-12T17:44:11.554Z,100089.66
2023-12-12T17:46:46.278Z,100089.47
2023-12-12T17:49:58.533Z,100089.72
2023-12-12T17:52:42.008Z,100087.41
2023-12-12T17:55:14.509Z,100077.09
2023-12-12T17:58:06.475Z,100080.47
2023-12-12T18:01:01.431Z,100087.03
2023-12-12T18:03:35.536Z,100078.00
2023-12-12T18:06:16.630Z,100077.91
2023-12-12T18:09:12.182Z,100074.06
2023-12-12T18:11:55.041Z,100067.34
2023-12-12T18:14:26.944Z,100073.75
2023-12-12T18:17:05.271Z,100074.72
2023-12-12T18:19:37.703Z,100070.03
2023-12-12T18:22:09.590Z,100071.13
2023-12-12T18:24:47.371Z,100063.97
2023-12-12T18:27:19.233Z,100054.06
2023-12-12T18:29:53.750Z,100063.84
2023-12-12T18:32:26.200Z,100060.47
2023-12-12T18:35:01.029Z,100065.56
2023-12-12T18:38:02.277Z,100057.13
2023-12-12T18:40:40.050Z,100056.78
2023-12-12T18:43:12.102Z,100052.09
2023-12-12T18:45:54.377Z,100053.22
2023-12-12T18:48:46.770Z,100047.41
2023-12-12T18:51:18.596Z,100044.47
2023-12-12T18:54:11.708Z,100037.69
2023-12-12T18:56:49.969Z,100030.88
2023-12-12T18:59:31.098Z,100033.78
2023-12-12T19:02:43.985Z,100028.63
2023-12-12T19:05:45.839Z,100033.56
2023-12-12T19:08:37.859Z,100025.59
2023-12-12T19:11:30.060Z,100026.34
2023-12-12T19:14:07.991Z,100021.06
2023-12-12T19:16:43.681Z,100020.66
2023-12-12T19:19:37.970Z,100015.88
2023-12-12T19:22:13.360Z,100022.59
2023-12-12T19:24:45.174Z,100017.63
2023-12-12T19:27:37.199Z,100019.25
2023-12-12T19:30:16.964Z,100015.38
2023-12-12T19:32:49.153Z,100022.41
2023-12-12T19:35:52.401Z,100015.09
2023-12-12T19:38:44.273Z,100008.88
2023-12-12T19:41:19.705Z,100011.72
2023-12-12T19:44:11.582Z,100012.31
2023-12-12T19:46:52.512Z,100008.53
2023-12-12T19:49:24.480Z,100016.25
2023-12-12T19:52:26.036Z,100005.59
2023-12-12T19:54:58.328Z,99999.28
2023-12-12T19:57:42.874Z,99998.41
2023-12-12T20:00:35.831Z,100003.88
2023-12-12T20:03:29.676Z,99997.06
2023-12-12T20:06:32.823Z,99999.91
2023-12-12T20:09:08.214Z,99997.06
2023-12-12T20:11:43.466Z,99994.19
2023-12-12T20:14:36.490Z,99988.72
2023-12-12T20:17:10.235Z,99979.84
2023-12-12T20:19:51.089Z,99987.69
2023-12-12T20:22:28.555Z,99976.41
2023-12-12T20:25:03.500Z,99973.53
2023-12-12T20:27:46.646Z,99981.75
2023-12-12T20:30:41.877Z,99961.09
2023-12-12T20:33:27.169Z,99967.00
2023-12-12T20:36:07.407Z,99964.47
2023-12-12T20:39:01.989Z,99961.09
2023-12-12T20:41:36.258Z,99970.50
2023-12-12T20:44:08.393Z,99967.13
2023-12-12T20:46:50.366Z,99963.00
2023-12-12T20:49:24.492Z,99963.00
2023-12-12T20:52:08.186Z,99959.81
2023-12-12T20:55:11.350Z,99963.38
2023-12-12T20:58:23.621Z,99949.19
2023-12-12T21:00:55.837Z,99960.69
2023-12-12T21:03:39.760Z,99953.34
2023-12-12T21:06:52.065Z,99950.50
2023-12-12T21:09:35.972Z,99943.06
2023-12-12T21:12:08.635Z,99937.22
2023-12-12T21:14:56.162Z,99932.56
2023-12-12T21:17:27.865Z,99928.03
2023-12-12T21:20:02.724Z,99918.91
2023-12-12T21:22:39.887Z,99925.03
2023-12-12T21:25:17.440Z,99923.53
2023-12-12T21:28:19.373Z,99915.44
2023-12-12T21:31:31.702Z,99916.25
2023-12-12T21:34:14.264Z,99912.38
2023-12-12T21:37:26.464Z,99904.81
2023-12-12T21:40:39.906Z,99910.28
2023-12-12T21:43:44.879Z,99905.38
2023-12-12T21:46:22.316Z,99898.94
2023-12-12T21:49:26.251Z,99895.19
2023-12-12T21:52:21.562Z,99890.59
2023-12-12T21:55:22.338Z,99885.44
2023-12-12T21:58:18.719Z,99871.13
2023-12-12T22:01:04.254Z,99870.53
2023-12-12T22:04:09.537Z,99870.94
2023-12-12T22:07:01.868Z,99876.88
2023-12-12T22:09:39.310Z,99872.47
2023-12-12T22:12:26.288Z,99871.09
2023-12-12T22:15:16.557Z,99865.16
2023-12-12T22:18:10.000Z,99860.16
2023-12-12T22:21:13.485Z,99850.47
2023-12-12T22:24:25.507Z,99841.97
2023-12-12T22:27:17.394Z,99844.66
2023-12-12T22:29:56.389Z,99840.69
2023-12-12T22:32:36.419Z,99837.84
2023-12-12T22:35:48.360Z,99827.09
2023-12-12T22:38:44.808Z,99829.09
2023-12-12T22:41:51.225Z,99831.75
2023-12-12T22:44:46.024Z,99829.22
2023-12-12T22:47:50.808Z,99841.09
2023-12-12T22:51:02.827Z,99831.41
2023-12-12T22:53:34.596Z,99825.25
2023-12-12T22:56:16.160Z,99827.34
2023-12-12T22:59:28.188Z,99818.06
2023-12-12T23:02:03.405Z,99819.28
2023-12-12T23:05:01.376Z,99812.00
2023-12-12T23:07:57.291Z,99804.16
2023-12-12T23:11:11.854Z,99807.31
2023-12-12T23:14:14.655Z,99793.41
2023-12-12T23:17:26.645Z,99794.66
2023-12-12T23:20:12.357Z,99792.28
2023-12-12T23:23:25.573Z,99792.91
2023-12-12T23:25:57.433Z,99781.88
2023-12-12T23:28:59.280Z,99772.75
2023-12-12T23:31:54.160Z,99765.94
2023-12-12T23:34:39.823Z,99764.97
2023-12-12T23:37:20.973Z,99751.78
2023-12-12T23:40:14.596Z,99751.06
2023-12-12T23:43:16.491Z,99745.31
2023-12-12T23:46:05.308Z,99737.38
2023-12-12T23:48:52.289Z,99730.91
2023-12-12T23:51:47.440Z,99725.41
2023-12-12T23:54:34.823Z,99723.25
2023-12-12T23:57:37.581Z,99719.28
